sensor_id;sensor_type;location;lat;lon;timestamp;P1;P2;P0
82817;PMS5003;72572;46.824;-71.222;2024-03-08T00:01:02;9.45;7.73;5.09
82817;PMS5003;72572;46.824;-71.222;2024-03-08T00:03:27;6.33;5.33;2.24
82817;PMS5003;72572;46.824;-71.222;2024-03-08T00:05:54;3.33;3.33;1.76
82817;PMS5003;72572;46.824;-71.222;2024-03-08T00:08:18;2.81;2.81;1
82817;PMS5003;72572;46.824;-71.222;2024-03-08T00:10:44;2.52;1.81;1.24
82817;PMS5003;72572;46.824;-71.222;2024-03-08T00:13:08;4.38;4.29;2
82817;PMS5003;72572;46.824;-71.222;2024-03-08T00:15:34;4.67;4.52;1.67
82817;PMS5003;72572;46.824;-71.222;2024-03-08T00:18:00;6.05;6.05;3
82817;PMS5003;72572;46.824;-71.222;2024-03-08T00:20:26;1.76;1.76;1
82817;PMS5003;72572;46.824;-71.222;2024-03-08T00:22:50;6.48;2.67;1.81
82817;PMS5003;72572;46.824;-71.222;2024-03-08T00:25:16;3.29;2.24;1.67
82817;PMS5003;72572;46.824;-71.222;2024-03-08T00:27:42;4.33;4.33;2
82817;PMS5003;72572;46.824;-71.222;2024-03-08T00:30:06;4.38;4.38;1.67
82817;PMS5003;72572;46.824;-71.222;2024-03-08T00:32:31;5.1;4;1.62
82817;PMS5003;72572;46.824;-71.222;2024-03-08T00:34:58;4.91;3.68;1.41
82817;PMS5003;72572;46.824;-71.222;2024-03-08T00:37:22;4.9;4.9;2.38
82817;PMS5003;72572;46.824;-71.222;2024-03-08T00:39:47;6.1;4.9;3.52
82817;PMS5003;72572;46.824;-71.222;2024-03-08T00:42:13;3.71;3;1
82817;PMS5003;72572;46.824;-71.222;2024-03-08T00:44:38;5.57;3.95;1.38
82817;PMS5003;72572;46.824;-71.222;2024-03-08T00:47:05;3.9;2.81;2
82817;PMS5003;72572;46.824;-71.222;2024-03-08T00:49:29;1.82;1.82;1.41
82817;PMS5003;72572;46.824;-71.222;2024-03-08T00:51:57;3.64;2.41;1.27
82817;PMS5003;72572;46.824;-71.222;2024-03-08T00:54:22;3.43;3.05;1.38
82817;PMS5003;72572;46.824;-71.222;2024-03-08T00:56:47;4.52;4.29;1.9
82817;PMS5003;72572;46.824;-71.222;2024-03-08T00:59:11;4.33;4.33;2
82817;PMS5003;72572;46.824;-71.222;2024-03-08T01:01:37;3.71;3.71;1.67
82817;PMS5003;72572;46.824;-71.222;2024-03-08T01:04:03;6.38;5.05;2
82817;PMS5003;72572;46.824;-71.222;2024-03-08T01:06:27;4.62;2;1.05
82817;PMS5003;72572;46.824;-71.222;2024-03-08T01:08:54;7.18;4.82;1.91
82817;PMS5003;72572;46.824;-71.222;2024-03-08T01:11:17;2;2;1.52
82817;PMS5003;72572;46.824;-71.222;2024-03-08T01:13:45;4.24;3.1;1.48
82817;PMS5003;72572;46.824;-71.222;2024-03-08T01:16:09;4.1;3.24;2
82817;PMS5003;72572;46.824;-71.222;2024-03-08T01:18:33;5.62;2.1;1
82817;PMS5003;72572;46.824;-71.222;2024-03-08T01:21:01;4.48;4.48;2.9
82817;PMS5003;72572;46.824;-71.222;2024-03-08T01:23:24;5.19;3.86;2
82817;PMS5003;72572;46.824;-71.222;2024-03-08T01:25:50;9.59;6.36;2.82
82817;PMS5003;72572;46.824;-71.222;2024-03-08T01:28:15;3.29;2.95;2
82817;PMS5003;72572;46.824;-71.222;2024-03-08T01:30:41;8.71;6.52;3.24
82817;PMS5003;72572;46.824;-71.222;2024-03-08T01:33:06;5.29;4.38;2
82817;PMS5003;72572;46.824;-71.222;2024-03-08T01:35:31;6.24;5.71;3.38
82817;PMS5003;72572;46.824;-71.222;2024-03-08T01:37:56;5;3.38;2.24
82817;PMS5003;72572;46.824;-71.222;2024-03-08T01:40:22;6.52;5.43;2.95
82817;PMS5003;72572;46.824;-71.222;2024-03-08T01:42:48;7.95;7;5
82817;PMS5003;72572;46.824;-71.222;2024-03-08T01:45:14;5.19;5.19;3.05
82817;PMS5003;72572;46.824;-71.222;2024-03-08T01:47:38;5.71;5.24;2.38
82817;PMS5003;72572;46.824;-71.222;2024-03-08T01:50:04;8;6.67;4.24
82817;PMS5003;72572;46.824;-71.222;2024-03-08T01:52:28;10.29;7.95;3.05
82817;PMS5003;72572;46.824;-71.222;2024-03-08T01:54:53;11.1;9.48;5.95
82817;PMS5003;72572;46.824;-71.222;2024-03-08T01:57:30;11.86;11;7
82817;PMS5003;72572;46.824;-71.222;2024-03-08T01:59:53;17.45;16.5;11.95
82817;PMS5003;72572;46.824;-71.222;2024-03-08T02:02:17;23.85;20.3;14.25
82817;PMS5003;72572;46.824;-71.222;2024-03-08T02:04:44;32.1;30.5;21.75
82817;PMS5003;72572;46.824;-71.222;2024-03-08T02:07:08;19.43;16.29;13.14
82817;PMS5003;72572;46.824;-71.222;2024-03-08T02:09:34;17.29;15.19;10
82817;PMS5003;72572;46.824;-71.222;2024-03-08T02:12:01;21.86;20.38;14.29
82817;PMS5003;72572;46.824;-71.222;2024-03-08T02:14:27;7.23;6.77;3.59
82817;PMS5003;72572;46.824;-71.222;2024-03-08T02:16:50;10.14;7.29;5.1
82817;PMS5003;72572;46.824;-71.222;2024-03-08T02:19:17;4.95;4.1;1.81
82817;PMS5003;72572;46.824;-71.222;2024-03-08T02:21:43;4.95;4.52;2.19
82817;PMS5003;72572;46.824;-71.222;2024-03-08T02:24:06;7.86;6.57;4.29
82817;PMS5003;72572;46.824;-71.222;2024-03-08T02:26:33;6.14;5.05;3.86
82817;PMS5003;72572;46.824;-71.222;2024-03-08T02:28:56;13.62;9.67;5.19
82817;PMS5003;72572;46.824;-71.222;2024-03-08T02:31:24;10.09;8.73;4.73
82817;PMS5003;72572;46.824;-71.222;2024-03-08T02:33:49;8.81;7.19;3.62
82817;PMS5003;72572;46.824;-71.222;2024-03-08T02:36:14;8.1;6.57;4.67
82817;PMS5003;72572;46.824;-71.222;2024-03-08T02:38:38;6.14;6.14;4.14
82817;PMS5003;72572;46.824;-71.222;2024-03-08T02:41:04;16.35;10.35;5.1
82817;PMS5003;72572;46.824;-71.222;2024-03-08T02:43:30;8.33;6;5
82817;PMS5003;72572;46.824;-71.222;2024-03-08T02:45:56;5.29;5.1;4.1
82817;PMS5003;72572;46.824;-71.222;2024-03-08T02:48:22;13.32;9.23;4.45
82817;PMS5003;72572;46.824;-71.222;2024-03-08T02:50:46;8.76;5.9;3.1
82817;PMS5003;72572;46.824;-71.222;2024-03-08T02:53:12;5.76;5.1;2.1
82817;PMS5003;72572;46.824;-71.222;2024-03-08T02:55:36;5;5;3.9
82817;PMS5003;72572;46.824;-71.222;2024-03-08T02:58:02;5.81;5.05;2.48
82817;PMS5003;72572;46.824;-71.222;2024-03-08T03:00:26;3.71;3.71;2.19
82817;PMS5003;72572;46.824;-71.222;2024-03-08T03:02:53;5.76;4.9;2.1
82817;PMS5003;72572;46.824;-71.222;2024-03-08T03:05:17;8.95;6.91;4.55
82817;PMS5003;72572;46.824;-71.222;2024-03-08T03:07:44;7.48;6.67;4.9
82817;PMS5003;72572;46.824;-71.222;2024-03-08T03:10:08;7.33;6.19;3.9
82817;PMS5003;72572;46.824;-71.222;2024-03-08T03:12:33;13;8.95;5.5
82817;PMS5003;72572;46.824;-71.222;2024-03-08T03:14:59;9.14;6.19;3.81
82817;PMS5003;72572;46.824;-71.222;2024-03-08T03:17:25;6.95;6.1;3.24
82817;PMS5003;72572;46.824;-71.222;2024-03-08T03:19:48;8.33;6.29;3.57
82817;PMS5003;72572;46.824;-71.222;2024-03-08T03:22:16;8.86;7.86;4.55
82817;PMS5003;72572;46.824;-71.222;2024-03-08T03:24:40;5.48;5.1;3
82817;PMS5003;72572;46.824;-71.222;2024-03-08T03:27:06;10.71;7.38;3.24
82817;PMS5003;72572;46.824;-71.222;2024-03-08T03:29:30;8.62;8.29;4.81
82817;PMS5003;72572;46.824;-71.222;2024-03-08T03:31:57;5.38;5;2.76
82817;PMS5003;72572;46.824;-71.222;2024-03-08T03:34:21;11.95;9.48;4.67
82817;PMS5003;72572;46.824;-71.222;2024-03-08T03:36:45;7.19;6.43;5.05
82817;PMS5003;72572;46.824;-71.222;2024-03-08T03:39:12;9.68;8.27;5
82817;PMS5003;72572;46.824;-71.222;2024-03-08T03:41:38;7.48;6.62;5
82817;PMS5003;72572;46.824;-71.222;2024-03-08T03:44:04;5.86;5.86;4.14
82817;PMS5003;72572;46.824;-71.222;2024-03-08T03:46:28;9.95;7.76;3.9
82817;PMS5003;72572;46.824;-71.222;2024-03-08T03:48:52;7.29;6.57;4.14
82817;PMS5003;72572;46.824;-71.222;2024-03-08T03:51:20;6.76;5.9;3.71
82817;PMS5003;72572;46.824;-71.222;2024-03-08T03:53:44;5.81;5.1;3.24
82817;PMS5003;72572;46.824;-71.222;2024-03-08T03:56:10;5.18;4.64;2.77
82817;PMS5003;72572;46.824;-71.222;2024-03-08T03:58:37;7.48;5.33;3.05
82817;PMS5003;72572;46.824;-71.222;2024-03-08T04:01:00;6.76;6.14;4.81
82817;PMS5003;72572;46.824;-71.222;2024-03-08T04:03:25;5;4.52;2.19
82817;PMS5003;72572;46.824;-71.222;2024-03-08T04:05:52;6.57;5.86;4
82817;PMS5003;72572;46.824;-71.222;2024-03-08T04:08:17;7.81;6.05;4.24
82817;PMS5003;72572;46.824;-71.222;2024-03-08T04:10:42;3.67;3.67;2.43
82817;PMS5003;72572;46.824;-71.222;2024-03-08T04:13:09;5.86;5.18;2.55
82817;PMS5003;72572;46.824;-71.222;2024-03-08T04:15:32;5.14;4.9;2.38
82817;PMS5003;72572;46.824;-71.222;2024-03-08T04:17:57;4.71;4.57;2.38
82817;PMS5003;72572;46.824;-71.222;2024-03-08T04:20:25;5.48;5.38;2.9
82817;PMS5003;72572;46.824;-71.222;2024-03-08T04:22:49;7.81;5.81;4.38
82817;PMS5003;72572;46.824;-71.222;2024-03-08T04:25:14;5.33;4.24;2.48
82817;PMS5003;72572;46.824;-71.222;2024-03-08T04:27:39;4.9;4.9;1.62
82817;PMS5003;72572;46.824;-71.222;2024-03-08T04:30:08;5.45;4.41;2.55
82817;PMS5003;72572;46.824;-71.222;2024-03-08T04:32:32;5.33;5;4
82817;PMS5003;72572;46.824;-71.222;2024-03-08T04:34:55;9.05;7;4.38
82817;PMS5003;72572;46.824;-71.222;2024-03-08T04:37:19;6;5;3.33
82817;PMS5003;72572;46.824;-71.222;2024-03-08T04:39:45;4.95;4.67;3.05
82817;PMS5003;72572;46.824;-71.222;2024-03-08T04:42:11;3.05;2.48;1.24
82817;PMS5003;72572;46.824;-71.222;2024-03-08T04:44:37;3;3;2.1
82817;PMS5003;72572;46.824;-71.222;2024-03-08T04:47:02;8.14;8.14;5.14
82817;PMS5003;72572;46.824;-71.222;2024-03-08T04:49:28;9.86;9.86;7.38
82817;PMS5003;72572;46.824;-71.222;2024-03-08T04:51:52;5.52;4.86;1.24
82817;PMS5003;72572;46.824;-71.222;2024-03-08T04:54:19;2.71;2.71;1.67
82817;PMS5003;72572;46.824;-71.222;2024-03-08T04:56:43;4.62;4.52;2.71
82817;PMS5003;72572;46.824;-71.222;2024-03-08T04:59:10;3.19;3.19;1.81
82817;PMS5003;72572;46.824;-71.222;2024-03-08T05:01:33;9.19;8.67;5.67
82817;PMS5003;72572;46.824;-71.222;2024-03-08T05:03:59;9.62;9;4.95
82817;PMS5003;72572;46.824;-71.222;2024-03-08T05:06:24;4.95;4.62;1.57
82817;PMS5003;72572;46.824;-71.222;2024-03-08T05:08:50;4.38;4.38;2.76
82817;PMS5003;72572;46.824;-71.222;2024-03-08T05:11:15;6.86;5.71;4.48
82817;PMS5003;72572;46.824;-71.222;2024-03-08T05:13:42;19.05;15.84;10.37
82817;PMS5003;72572;46.824;-71.222;2024-03-08T05:16:06;9.81;8.95;5.05
82817;PMS5003;72572;46.824;-71.222;2024-03-08T05:18:30;11.52;8.14;5
82817;PMS5003;72572;46.824;-71.222;2024-03-08T05:20:58;8;8;5
82817;PMS5003;72572;46.824;-71.222;2024-03-08T05:23:21;7.52;5.05;2
82817;PMS5003;72572;46.824;-71.222;2024-03-08T05:25:46;6.71;4.67;3.05
82817;PMS5003;72572;46.824;-71.222;2024-03-08T05:28:13;6.67;6.67;3
82817;PMS5003;72572;46.824;-71.222;2024-03-08T05:30:38;12;10.9;8
82817;PMS5003;72572;46.824;-71.222;2024-03-08T05:33:04;5.95;5.33;3.33
82817;PMS5003;72572;46.824;-71.222;2024-03-08T05:35:29;9.71;9.38;6.05
82817;PMS5003;72572;46.824;-71.222;2024-03-08T05:37:55;12.23;11.05;6.5
82817;PMS5003;72572;46.824;-71.222;2024-03-08T05:40:21;8.62;8.24;3.52
82817;PMS5003;72572;46.824;-71.222;2024-03-08T05:42:45;5.29;4.24;2
82817;PMS5003;72572;46.824;-71.222;2024-03-08T05:45:10;6.05;6;3.57
82817;PMS5003;72572;46.824;-71.222;2024-03-08T05:47:35;5.67;4.9;3.62
82817;PMS5003;72572;46.824;-71.222;2024-03-08T05:50:00;4.81;4.14;2.76
82817;PMS5003;72572;46.824;-71.222;2024-03-08T05:52:27;6.67;5;2
82817;PMS5003;72572;46.824;-71.222;2024-03-08T05:54:53;3.27;1.77;1.27
82817;PMS5003;72572;46.824;-71.222;2024-03-08T05:57:18;5.19;4.52;1.81
82817;PMS5003;72572;46.824;-71.222;2024-03-08T05:59:43;7.71;6.76;2
82817;PMS5003;72572;46.824;-71.222;2024-03-08T06:02:09;8.81;5.52;4
82817;PMS5003;72572;46.824;-71.222;2024-03-08T06:04:33;9.38;5.9;4
82817;PMS5003;72572;46.824;-71.222;2024-03-08T06:06:57;5.67;5;3.9
82817;PMS5003;72572;46.824;-71.222;2024-03-08T06:09:25;3.62;3.62;1.52
82817;PMS5003;72572;46.824;-71.222;2024-03-08T06:11:50;7.82;6.55;3.91
82817;PMS5003;72572;46.824;-71.222;2024-03-08T06:14:16;4.48;3.33;1
82817;PMS5003;72572;46.824;-71.222;2024-03-08T06:16:40;5.48;4.81;3.05
82817;PMS5003;72572;46.824;-71.222;2024-03-08T06:19:04;5.52;4.81;2.76
82817;PMS5003;72572;46.824;-71.222;2024-03-08T06:21:31;9;7.57;3.81
82817;PMS5003;72572;46.824;-71.222;2024-03-08T06:23:56;8.33;7.05;4.24
82817;PMS5003;72572;46.824;-71.222;2024-03-08T06:26:20;7.8;7.3;5
82817;PMS5003;72572;46.824;-71.222;2024-03-08T06:28:47;6.43;5.24;3.43
82817;PMS5003;72572;46.824;-71.222;2024-03-08T06:31:14;8;6.86;3.9
82817;PMS5003;72572;46.824;-71.222;2024-03-08T06:33:39;10.19;8.38;4.52
82817;PMS5003;72572;46.824;-71.222;2024-03-08T06:36:02;6.19;5.38;1.67
82817;PMS5003;72572;46.824;-71.222;2024-03-08T06:38:29;7.14;5.1;3.33
82817;PMS5003;72572;46.824;-71.222;2024-03-08T06:40:53;7.57;7.14;3.71
82817;PMS5003;72572;46.824;-71.222;2024-03-08T06:43:19;10.95;7.43;4.1
82817;PMS5003;72572;46.824;-71.222;2024-03-08T06:45:44;8.55;7.45;4.86
82817;PMS5003;72572;46.824;-71.222;2024-03-08T06:48:10;5.71;3.71;1.67
82817;PMS5003;72572;46.824;-71.222;2024-03-08T06:50:36;6.62;5.24;3.71
82817;PMS5003;72572;46.824;-71.222;2024-03-08T06:53:02;7.52;4.76;2.38
82817;PMS5003;72572;46.824;-71.222;2024-03-08T06:55:25;4;4;2.19
82817;PMS5003;72572;46.824;-71.222;2024-03-08T06:57:52;6.95;6.57;4
82817;PMS5003;72572;46.824;-71.222;2024-03-08T07:00:15;8.9;6.95;4.05
82817;PMS5003;72572;46.824;-71.222;2024-03-08T07:02:42;7.5;6.64;3.55
82817;PMS5003;72572;46.824;-71.222;2024-03-08T07:05:09;8.48;7.24;4.38
82817;PMS5003;72572;46.824;-71.222;2024-03-08T07:07:32;6.95;6.14;2.48
82817;PMS5003;72572;46.824;-71.222;2024-03-08T07:09:59;9.4;7.2;4.6
82817;PMS5003;72572;46.824;-71.222;2024-03-08T07:12:24;8.52;8.05;3.62
82817;PMS5003;72572;46.824;-71.222;2024-03-08T07:14:49;6.9;5.4;2.4
82817;PMS5003;72572;46.824;-71.222;2024-03-08T07:17:13;8.4;7.2;4
82817;PMS5003;72572;46.824;-71.222;2024-03-08T07:19:41;7.43;5.38;3.9
82817;PMS5003;72572;46.824;-71.222;2024-03-08T07:22:06;4.45;3.85;2.3
82817;PMS5003;72572;46.824;-71.222;2024-03-08T07:24:38;4.62;4.62;3.24
82817;PMS5003;72572;46.824;-71.222;2024-03-08T07:26:56;5.81;4;1.52
82817;PMS5003;72572;46.824;-71.222;2024-03-08T07:29:20;4.95;4.4;2.65
82817;PMS5003;72572;46.824;-71.222;2024-03-08T07:31:46;11;8.8;4.55
82817;PMS5003;72572;46.824;-71.222;2024-03-08T07:34:13;7.2;6.75;4.45
82817;PMS5003;72572;46.824;-71.222;2024-03-08T07:36:39;7.86;6.48;3.76
82817;PMS5003;72572;46.824;-71.222;2024-03-08T07:39:03;9.25;7.35;4.6
82817;PMS5003;72572;46.824;-71.222;2024-03-08T07:41:27;7.9;7.29;4.57
82817;PMS5003;72572;46.824;-71.222;2024-03-08T07:43:53;10.43;9.1;4.9
82817;PMS5003;72572;46.824;-71.222;2024-03-08T07:46:20;10.15;8.9;4.55
82817;PMS5003;72572;46.824;-71.222;2024-03-08T07:48:46;8.33;7.67;4.81
82817;PMS5003;72572;46.824;-71.222;2024-03-08T07:51:08;9.45;8.85;4.85
82817;PMS5003;72572;46.824;-71.222;2024-03-08T07:53:37;9.1;7.81;4.29
82817;PMS5003;72572;46.824;-71.222;2024-03-08T07:56:01;9.15;8;5.2
82817;PMS5003;72572;46.824;-71.222;2024-03-08T07:58:25;8.1;7.35;4.85
82817;PMS5003;72572;46.824;-71.222;2024-03-08T08:00:51;6.62;5.67;2.67
82817;PMS5003;72572;46.824;-71.222;2024-03-08T08:03:16;4.67;4.67;2.19
82817;PMS5003;72572;46.824;-71.222;2024-03-08T08:05:41;2.67;2.67;1.33
82817;PMS5003;72572;46.824;-71.222;2024-03-08T08:08:08;7.05;4.9;2.95
82817;PMS5003;72572;46.824;-71.222;2024-03-08T08:10:33;8.68;7.45;4
82817;PMS5003;72572;46.824;-71.222;2024-03-08T08:12:59;2.71;2.48;1.52
82817;PMS5003;72572;46.824;-71.222;2024-03-08T08:15:23;5.38;4.76;2
82817;PMS5003;72572;46.824;-71.222;2024-03-08T08:17:50;8.67;7.33;4.38
82817;PMS5003;72572;46.824;-71.222;2024-03-08T08:20:14;10.1;8.95;4.52
82817;PMS5003;72572;46.824;-71.222;2024-03-08T08:22:41;11.19;11.19;7.05
82817;PMS5003;72572;46.824;-71.222;2024-03-08T08:25:04;9.19;6.29;3.9
82817;PMS5003;72572;46.824;-71.222;2024-03-08T08:27:31;5.59;4.77;2
82817;PMS5003;72572;46.824;-71.222;2024-03-08T08:29:57;8.5;7.6;4
82817;PMS5003;72572;46.824;-71.222;2024-03-08T08:32:23;9.48;7.43;4.52
82817;PMS5003;72572;46.824;-71.222;2024-03-08T08:34:45;5.33;4.9;2.76
82817;PMS5003;72572;46.824;-71.222;2024-03-08T08:37:11;6.14;4.81;2
82817;PMS5003;72572;46.824;-71.222;2024-03-08T08:39:36;7.9;6.1;2.48
82817;PMS5003;72572;46.824;-71.222;2024-03-08T08:42:02;5.19;4.62;2.19
82817;PMS5003;72572;46.824;-71.222;2024-03-08T08:44:29;3.55;3.55;1.23
82817;PMS5003;72572;46.824;-71.222;2024-03-08T08:46:53;11.8;11.25;5
82817;PMS5003;72572;46.824;-71.222;2024-03-08T08:49:20;12.95;12.6;6.9
82817;PMS5003;72572;46.824;-71.222;2024-03-08T08:51:48;10.4;9.05;4.95
82817;PMS5003;72572;46.824;-71.222;2024-03-08T08:54:09;12.8;10.5;5.9
82817;PMS5003;72572;46.824;-71.222;2024-03-08T08:56:35;7;4.75;2.4
82817;PMS5003;72572;46.824;-71.222;2024-03-08T08:59:15;5.32;3.45;2
82817;PMS5003;72572;46.824;-71.222;2024-03-08T09:24:40;5.05;4.77;2
82817;PMS5003;72572;46.824;-71.222;2024-03-08T09:24:59;4.32;3.64;2
82817;PMS5003;72572;46.824;-71.222;2024-03-08T09:25:20;4.14;3.62;1.9
82817;PMS5003;72572;46.824;-71.222;2024-03-08T09:25:35;8.45;5.95;4.05
82817;PMS5003;72572;46.824;-71.222;2024-03-08T09:25:47;6.81;4.9;2.19
82817;PMS5003;72572;46.824;-71.222;2024-03-08T09:25:56;8.1;6.52;4
82817;PMS5003;72572;46.824;-71.222;2024-03-08T09:26:07;5.24;5.24;3.62
82817;PMS5003;72572;46.824;-71.222;2024-03-08T09:26:19;4.95;3.27;1.68
82817;PMS5003;72572;46.824;-71.222;2024-03-08T09:26:27;6.32;5.18;1.68
82817;PMS5003;72572;46.824;-71.222;2024-03-08T09:28:53;5;5;3.62
82817;PMS5003;72572;46.824;-71.222;2024-03-08T09:31:18;5.38;5.38;3.33
82817;PMS5003;72572;46.824;-71.222;2024-03-08T09:33:42;6.9;6.9;4
82817;PMS5003;72572;46.824;-71.222;2024-03-08T09:36:09;4.52;4.1;2
82817;PMS5003;72572;46.824;-71.222;2024-03-08T09:38:35;4.95;4.95;2
82817;PMS5003;72572;46.824;-71.222;2024-03-08T09:40:59;7.9;6.57;2.76
82817;PMS5003;72572;46.824;-71.222;2024-03-08T09:43:24;7;7;4
82817;PMS5003;72572;46.824;-71.222;2024-03-08T09:45:48;5.45;5.35;4
82817;PMS5003;72572;46.824;-71.222;2024-03-08T09:48:16;7.57;7.43;4
82817;PMS5003;72572;46.824;-71.222;2024-03-08T09:50:41;6;5.7;2.2
82817;PMS5003;72572;46.824;-71.222;2024-03-08T09:53:07;5.25;4.55;2
82817;PMS5003;72572;46.824;-71.222;2024-03-08T09:55:29;8.5;7.6;4.5
82817;PMS5003;72572;46.824;-71.222;2024-03-08T09:57:55;10.55;8.5;5.9
82817;PMS5003;72572;46.824;-71.222;2024-03-08T10:00:21;6.8;5.3;4.1
82817;PMS5003;72572;46.824;-71.222;2024-03-08T10:02:51;9.5;8.55;5.45
82817;PMS5003;72572;46.824;-71.222;2024-03-08T10:05:14;8.33;8.33;4.33
82817;PMS5003;72572;46.824;-71.222;2024-03-08T10:07:40;7.65;7.65;5.1
82817;PMS5003;72572;46.824;-71.222;2024-03-08T10:10:07;5.7;5.45;3.2
82817;PMS5003;72572;46.824;-71.222;2024-03-08T10:12:33;7.71;7.43;4.14
82817;PMS5003;72572;46.824;-71.222;2024-03-08T10:14:59;7.4;5.35;3.1
82817;PMS5003;72572;46.824;-71.222;2024-03-08T10:17:22;7.75;7.2;3.4
82817;PMS5003;72572;46.824;-71.222;2024-03-08T10:19:49;6.45;6.3;3.65
82817;PMS5003;72572;46.824;-71.222;2024-03-08T10:22:14;8;6.48;4.62
82817;PMS5003;72572;46.824;-71.222;2024-03-08T10:24:38;8;8;5.45
82817;PMS5003;72572;46.824;-71.222;2024-03-08T10:27:04;5.1;3.7;1.9
82817;PMS5003;72572;46.824;-71.222;2024-03-08T10:29:31;8;7.9;4.55
82817;PMS5003;72572;46.824;-71.222;2024-03-08T10:31:55;12.5;11.15;5.4
82817;PMS5003;72572;46.824;-71.222;2024-03-08T10:34:20;8.25;8;4.55
82817;PMS5003;72572;46.824;-71.222;2024-03-08T10:36:45;8.85;8.4;5.05
82817;PMS5003;72572;46.824;-71.222;2024-03-08T10:39:19;7.48;7.1;4.19
82817;PMS5003;72572;46.824;-71.222;2024-03-08T10:41:38;4.8;4.15;2.45
82817;PMS5003;72572;46.824;-71.222;2024-03-08T10:44:10;8.05;6.85;3
82817;PMS5003;72572;46.824;-71.222;2024-03-08T10:46:30;3.43;3.43;1.52
82817;PMS5003;72572;46.824;-71.222;2024-03-08T10:48:52;4.76;4.48;2.67
82817;PMS5003;72572;46.824;-71.222;2024-03-08T10:51:19;4.7;4.45;2
82817;PMS5003;72572;46.824;-71.222;2024-03-08T10:53:42;5;3.1;1.95
82817;PMS5003;72572;46.824;-71.222;2024-03-08T10:56:10;8.19;7.29;4
82817;PMS5003;72572;46.824;-71.222;2024-03-08T10:58:32;10.45;7.4;1.8
82817;PMS5003;72572;46.824;-71.222;2024-03-08T11:00:58;4.45;4;1.6
82817;PMS5003;72572;46.824;-71.222;2024-03-08T11:03:55;7.35;5.65;3.5
82817;PMS5003;72572;46.824;-71.222;2024-03-08T11:05:50;5.9;5;4
82817;PMS5003;72572;46.824;-71.222;2024-03-08T11:08:17;4.65;4.4;2.8
82817;PMS5003;72572;46.824;-71.222;2024-03-08T11:10:46;6.4;4.7;3.8
82817;PMS5003;72572;46.824;-71.222;2024-03-08T11:13:08;4.45;2.91;1.82
82817;PMS5003;72572;46.824;-71.222;2024-03-08T11:15:30;7.81;4.48;2.19
82817;PMS5003;72572;46.824;-71.222;2024-03-08T11:17:58;4.67;4.1;1.62
82817;PMS5003;72572;46.824;-71.222;2024-03-08T11:20:23;3.33;3.33;2
82817;PMS5003;72572;46.824;-71.222;2024-03-08T11:22:48;2.76;2.76;1.62
82817;PMS5003;72572;46.824;-71.222;2024-03-08T11:25:30;4.52;3.86;2
82817;PMS5003;72572;46.824;-71.222;2024-03-08T11:27:37;2.48;2.48;1.05
82817;PMS5003;72572;46.824;-71.222;2024-03-08T11:30:12;5.05;3.77;1.55
82817;PMS5003;72572;46.824;-71.222;2024-03-08T11:32:30;3.81;2.76;1.62
82817;PMS5003;72572;46.824;-71.222;2024-03-08T11:34:55;4;3.81;2
82817;PMS5003;72572;46.824;-71.222;2024-03-08T11:37:19;4.62;4.62;3.33
82817;PMS5003;72572;46.824;-71.222;2024-03-08T11:39:46;2.76;2.76;1.19
82817;PMS5003;72572;46.824;-71.222;2024-03-08T11:42:10;5.43;4.1;2
82817;PMS5003;72572;46.824;-71.222;2024-03-08T11:44:36;4.81;4.81;2.43
82817;PMS5003;72572;46.824;-71.222;2024-03-08T11:47:01;4.43;3.81;1.95
82817;PMS5003;72572;46.824;-71.222;2024-03-08T11:49:27;4;2;1
82817;PMS5003;72572;46.824;-71.222;2024-03-08T11:51:52;4.33;2.1;1.62
82817;PMS5003;72572;46.824;-71.222;2024-03-08T11:54:16;3.38;3.05;1.52
82817;PMS5003;72572;46.824;-71.222;2024-03-08T11:56:42;4.81;2;1
82817;PMS5003;72572;46.824;-71.222;2024-03-08T11:59:10;7.29;5.05;3.62
82817;PMS5003;72572;46.824;-71.222;2024-03-08T12:01:32;3.81;3.24;1.9
82817;PMS5003;72572;46.824;-71.222;2024-03-08T12:03:59;2;2;1
82817;PMS5003;72572;46.824;-71.222;2024-03-08T12:06:25;2.86;2.29;1.1
82817;PMS5003;72572;46.824;-71.222;2024-03-08T12:08:50;2.1;1.62;0.9
82817;PMS5003;72572;46.824;-71.222;2024-03-08T12:11:14;4.71;4.62;2.95
82817;PMS5003;72572;46.824;-71.222;2024-03-08T12:13:41;6.29;4.76;2.19
82817;PMS5003;72572;46.824;-71.222;2024-03-08T12:16:05;7.24;5.86;3.86
82817;PMS5003;72572;46.824;-71.222;2024-03-08T12:18:33;5.52;4.24;3.62
82817;PMS5003;72572;46.824;-71.222;2024-03-08T12:21:04;8.23;7.05;4.09
82817;PMS5003;72572;46.824;-71.222;2024-03-08T12:23:22;13;9;5
82817;PMS5003;72572;46.824;-71.222;2024-03-08T12:25:47;8.24;6.48;4.33
82817;PMS5003;72572;46.824;-71.222;2024-03-08T12:28:13;6.57;4.1;2
82817;PMS5003;72572;46.824;-71.222;2024-03-08T12:30:43;6.62;5.24;2
82817;PMS5003;72572;46.824;-71.222;2024-03-08T12:33:02;3.81;3.71;1.67
82817;PMS5003;72572;46.824;-71.222;2024-03-08T12:35:29;4.25;4.15;2.1
82817;PMS5003;72572;46.824;-71.222;2024-03-08T12:37:54;5.36;4.82;2.18
82817;PMS5003;72572;46.824;-71.222;2024-03-08T12:40:25;5.67;5.19;3.33
82817;PMS5003;72572;46.824;-71.222;2024-03-08T12:42:44;4.95;4.81;3.33
82817;PMS5003;72572;46.824;-71.222;2024-03-08T12:45:10;4;3.81;1.95
82817;PMS5003;72572;46.824;-71.222;2024-03-08T12:47:36;4.24;3.81;1.05
82817;PMS5003;72572;46.824;-71.222;2024-03-08T12:50:01;5.05;4.81;2.57
82817;PMS5003;72572;46.824;-71.222;2024-03-08T12:52:30;5;4.48;2
82817;PMS5003;72572;46.824;-71.222;2024-03-08T12:54:53;5.91;5.14;3.05
82817;PMS5003;72572;46.824;-71.222;2024-03-08T12:57:20;2.95;2.95;1.38
82817;PMS5003;72572;46.824;-71.222;2024-03-08T12:59:46;4.9;4;2
82817;PMS5003;72572;46.824;-71.222;2024-03-08T13:02:09;4;2;1.24
82817;PMS5003;72572;46.824;-71.222;2024-03-08T13:04:36;6.76;5.1;3.24
82817;PMS5003;72572;46.824;-71.222;2024-03-08T13:07:01;5.24;4.43;1.62
82817;PMS5003;72572;46.824;-71.222;2024-03-08T13:09:26;5;5;3.38
82817;PMS5003;72572;46.824;-71.222;2024-03-08T13:11:53;5.91;4.32;2
82817;PMS5003;72572;46.824;-71.222;2024-03-08T13:14:17;4.24;2.76;1.38
82817;PMS5003;72572;46.824;-71.222;2024-03-08T13:16:42;4.24;4.24;2
82817;PMS5003;72572;46.824;-71.222;2024-03-08T13:19:07;7.52;5.81;3.86
82817;PMS5003;72572;46.824;-71.222;2024-03-08T13:21:34;5.24;4.33;2
82817;PMS5003;72572;46.824;-71.222;2024-03-08T13:23:58;4.62;3.24;2
82817;PMS5003;72572;46.824;-71.222;2024-03-08T13:26:24;5;5;2
82817;PMS5003;72572;46.824;-71.222;2024-03-08T13:28:50;2.5;2.5;2.09
82817;PMS5003;72572;46.824;-71.222;2024-03-08T13:31:16;5.24;4.1;2
82817;PMS5003;72572;46.824;-71.222;2024-03-08T13:33:41;5.52;5.38;4.29
82817;PMS5003;72572;46.824;-71.222;2024-03-08T13:36:05;5.14;4.76;3.1
82817;PMS5003;72572;46.824;-71.222;2024-03-08T13:38:30;5.33;4.67;3
82817;PMS5003;72572;46.824;-71.222;2024-03-08T13:40:55;5.24;5.24;3.9
82817;PMS5003;72572;46.824;-71.222;2024-03-08T13:43:22;7.14;5.38;3.9
82817;PMS5003;72572;46.824;-71.222;2024-03-08T13:45:48;5.91;5.36;2.55
82817;PMS5003;72572;46.824;-71.222;2024-03-08T13:48:13;2.67;2.67;2
82817;PMS5003;72572;46.824;-71.222;2024-03-08T13:50:39;6.38;5;3.52
82817;PMS5003;72572;46.824;-71.222;2024-03-08T13:53:02;5.29;4.05;1.05
82817;PMS5003;72572;46.824;-71.222;2024-03-08T13:55:29;4.67;4.29;2.19
82817;PMS5003;72572;46.824;-71.222;2024-03-08T13:57:52;4.38;3.24;1.76
82817;PMS5003;72572;46.824;-71.222;2024-03-08T14:00:19;6.05;3.43;1.67
82817;PMS5003;72572;46.824;-71.222;2024-03-08T14:02:44;4.45;3.55;1.27
82817;PMS5003;72572;46.824;-71.222;2024-03-08T14:05:09;7.67;5.76;2.67
82817;PMS5003;72572;46.824;-71.222;2024-03-08T14:07:37;6.67;5;2.67
82817;PMS5003;72572;46.824;-71.222;2024-03-08T14:10:02;2.62;2.33;1.52